Time;durP1;ratioP1;P1;durP2;ratioP2;P2;SDS_P1;SDS_P2;PMS_P1;PMS_P2;Temp;Humidity;BMP_temperature;BMP_pressure;BME280_temperature;BME280_humidity;BME280_pressure;Samples;Min_cycle;Max_cycle;Signal;HPM_P1;HPM_P2
2021/04/07 00:01:50;;;;;;;10.70;2.08;;;1.40;91.00;;;;;;4991543;28;20101;-89
2021/04/07 00:04:16;;;;;;;4.15;1.55;;;1.20;91.20;;;;;;4971352;28;615471;-89
2021/04/07 00:06:42;;;;;;;8.35;1.77;;;1.20;91.40;;;;;;4974338;28;20042;-89
2021/04/07 00:09:08;;;;;;;6.93;2.03;;;1.20;91.70;;;;;;4992990;28;20486;-90
2021/04/07 00:11:35;;;;;;;10.70;1.90;;;1.20;91.90;;;;;;4992460;28;20454;-89
2021/04/07 00:14:05;;;;;;;10.38;2.13;;;1.20;92.20;;;;;;4976571;28;20478;-89
2021/04/07 00:16:31;;;;;;;5.10;1.70;;;1.20;92.30;;;;;;4992902;28;20045;-88
2021/04/07 00:18:57;;;;;;;8.02;2.05;;;1.20;92.40;;;;;;4992557;28;20042;-89
2021/04/07 00:21:23;;;;;;;9.90;1.90;;;1.30;92.50;;;;;;4992865;28;20434;-89
2021/04/07 00:23:49;;;;;;;11.10;2.17;;;1.30;92.60;;;;;;4991692;28;20109;-90
2021/04/07 00:26:15;;;;;;;7.63;1.95;;;1.30;92.60;;;;;;4992322;28;20122;-90
2021/04/07 00:28:41;;;;;;;9.02;1.85;;;1.30;92.70;;;;;;4990631;28;20541;-89
2021/04/07 00:31:07;;;;;;;8.60;1.90;;;1.30;92.80;;;;;;4992735;28;20038;-89
2021/04/07 00:33:32;;;;;;;9.40;1.90;;;1.30;92.90;;;;;;4992934;28;20096;-89
2021/04/07 00:35:58;;;;;;;11.02;1.73;;;1.40;92.90;;;;;;4975244;28;20031;-89
2021/04/07 00:38:24;;;;;;;6.00;1.75;;;1.40;93.00;;;;;;4975131;28;20046;-90
2021/04/07 00:40:51;;;;;;;8.88;1.50;;;1.30;92.90;;;;;;4992097;28;20034;-90
2021/04/07 00:43:17;;;;;;;11.27;2.17;;;1.30;92.80;;;;;;4991060;28;20049;-90
2021/04/07 00:45:43;;;;;;;10.20;2.22;;;1.30;92.80;;;;;;4991908;28;20049;-90
2021/04/07 00:48:09;;;;;;;9.25;1.60;;;1.20;92.90;;;;;;4992225;28;20117;-89
2021/04/07 00:50:36;;;;;;;7.88;1.70;;;1.20;93.00;;;;;;4974557;28;20073;-89
2021/04/07 00:53:02;;;;;;;7.57;1.70;;;1.20;92.90;;;;;;4992218;28;20119;-90
2021/04/07 00:55:31;;;;;;;6.47;1.40;;;1.20;93.10;;;;;;4992342;28;20042;-89
2021/04/07 00:57:58;;;;;;;8.20;1.90;;;1.10;93.10;;;;;;4991559;28;20153;-90
2021/04/07 01:00:25;;;;;;;6.22;1.63;;;1.10;93.20;;;;;;4977440;28;20049;-90
2021/04/07 01:02:58;;;;;;;8.23;1.83;;;1.20;93.30;;;;;;4973407;28;20085;-90
2021/04/07 01:05:24;;;;;;;4.97;2.00;;;1.20;93.20;;;;;;4992516;28;20043;-89
2021/04/07 01:07:50;;;;;;;6.70;1.48;;;1.30;93.40;;;;;;4991189;28;20054;-89
2021/04/07 01:10:17;;;;;;;7.10;1.60;;;1.30;93.70;;;;;;4974783;28;20073;-90
2021/04/07 01:12:44;;;;;;;4.80;1.20;;;1.30;94.00;;;;;;4991080;28;20034;-89
2021/04/07 01:15:12;;;;;;;9.30;1.75;;;1.40;94.10;;;;;;4975033;28;20045;-89
2021/04/07 01:17:39;;;;;;;5.70;1.50;;;1.40;94.30;;;;;;4974186;28;20042;-88
2021/04/07 01:20:07;;;;;;;9.07;1.63;;;1.40;94.50;;;;;;4977232;28;20045;-89
2021/04/07 01:22:35;;;;;;;7.50;1.42;;;1.40;94.40;;;;;;4995566;28;20307;-89
2021/04/07 01:25:02;;;;;;;5.95;1.88;;;1.50;94.30;;;;;;4977715;28;20070;-89
2021/04/07 01:27:28;;;;;;;4.20;1.10;;;1.40;94.40;;;;;;4996278;28;20042;-89
2021/04/07 01:29:54;;;;;;;6.15;1.10;;;1.40;94.40;;;;;;4995120;28;20121;-89
2021/04/07 01:32:20;;;;;;;5.47;1.35;;;1.40;94.40;;;;;;4978722;28;20121;-89
2021/04/07 01:34:46;;;;;;;5.40;1.33;;;1.30;94.50;;;;;;4994597;28;20046;-89
2021/04/07 01:37:13;;;;;;;3.75;1.30;;;1.30;94.60;;;;;;4978781;28;20085;-89
2021/04/07 01:39:41;;;;;;;4.93;1.75;;;1.30;94.60;;;;;;4995059;28;20498;-89
2021/04/07 01:42:08;;;;;;;5.85;1.17;;;1.30;94.60;;;;;;4995436;28;20067;-89
2021/04/07 01:44:37;;;;;;;9.15;2.10;;;1.40;94.50;;;;;;4995808;28;20085;-89
2021/04/07 01:47:05;;;;;;;5.28;1.40;;;1.40;94.50;;;;;;4994918;28;20045;-90
2021/04/07 01:49:32;;;;;;;3.95;1.30;;;1.30;94.70;;;;;;4995532;28;20045;-89
2021/04/07 01:51:59;;;;;;;6.20;1.23;;;1.40;94.70;;;;;;4994889;28;20040;-89
2021/04/07 01:54:25;;;;;;;7.63;1.88;;;1.40;94.90;;;;;;4978246;28;20479;-90
2021/04/07 01:56:53;;;;;;;7.95;2.65;;;1.50;94.90;;;;;;4961436;28;20049;-89
2021/04/07 01:59:22;;;;;;;7.93;1.77;;;1.40;95.00;;;;;;4995523;28;20046;-89
2021/04/07 02:01:50;;;;;;;5.15;1.60;;;1.50;95.10;;;;;;4994346;28;20062;-89
2021/04/07 02:04:16;;;;;;;8.73;2.03;;;1.70;94.90;;;;;;4993947;28;20053;-90
2021/04/07 02:06:46;;;;;;;9.23;2.20;;;1.70;94.80;;;;;;4997154;28;20037;-89
2021/04/07 02:09:13;;;;;;;7.28;1.70;;;1.60;94.90;;;;;;5015298;28;20474;-90
2021/04/07 02:11:44;;;;;;;7.20;1.73;;;1.60;94.90;;;;;;4997795;28;20038;-90
2021/04/07 02:14:14;;;;;;;8.88;1.70;;;1.50;94.90;;;;;;5015190;28;20128;-91
2021/04/07 02:16:40;;;;;;;9.00;1.95;;;1.30;95.30;;;;;;5015150;28;20096;-89
2021/04/07 02:19:10;;;;;;;9.02;1.90;;;1.20;95.50;;;;;;4997487;28;20470;-91
2021/04/07 02:21:37;;;;;;;8.50;1.75;;;1.20;95.70;;;;;;4997302;28;20061;-91
2021/04/07 02:24:04;;;;;;;10.07;2.05;;;1.20;95.70;;;;;;5013993;28;20068;-90
2021/04/07 02:26:34;;;;;;;8.45;1.60;;;1.20;95.80;;;;;;5014735;28;20057;-91
2021/04/07 02:29:00;;;;;;;6.28;1.70;;;1.30;95.80;;;;;;5014145;28;20046;-91
2021/04/07 02:31:26;;;;;;;8.43;1.40;;;1.30;95.80;;;;;;5014245;28;20044;-92
2021/04/07 02:33:52;;;;;;;5.85;1.50;;;1.20;95.80;;;;;;4996055;28;20471;-90
2021/04/07 02:36:18;;;;;;;5.90;1.50;;;1.30;95.80;;;;;;4997049;28;20072;-91
2021/04/07 02:38:43;;;;;;;4.95;1.80;;;1.20;95.90;;;;;;5014175;28;20052;-90
2021/04/07 02:41:09;;;;;;;9.93;3.10;;;1.20;96.00;;;;;;4996840;28;20165;-91
2021/04/07 02:43:35;;;;;;;9.25;3.50;;;1.10;96.20;;;;;;4996847;28;20609;-91
2021/04/07 02:46:04;;;;;;;8.15;2.80;;;1.20;96.20;;;;;;4995931;28;20572;-92
2021/04/07 02:48:30;;;;;;;7.65;3.20;;;1.20;96.20;;;;;;5014921;28;20041;-90
2021/04/07 02:50:56;;;;;;;11.15;2.33;;;1.30;96.20;;;;;;5013763;28;20038;-91
2021/04/07 02:53:22;;;;;;;6.28;1.70;;;1.30;96.20;;;;;;4997294;28;20478;-91
2021/04/07 02:55:48;;;;;;;7.25;1.70;;;1.40;96.20;;;;;;5014000;28;20042;-91
2021/04/07 02:58:14;;;;;;;8.45;1.35;;;1.40;96.20;;;;;;5014306;28;20048;-90
2021/04/07 03:00:40;;;;;;;6.35;1.40;;;1.40;96.40;;;;;;5014444;28;20468;-92
2021/04/07 03:03:06;;;;;;;10.68;1.83;;;1.60;96.40;;;;;;4995844;28;20125;-92
2021/04/07 03:05:33;;;;;;;6.25;1.40;;;1.70;96.10;;;;;;4997329;28;20038;-91
2021/04/07 03:07:59;;;;;;;4.15;1.48;;;1.70;96.10;;;;;;4995890;28;20038;-91
2021/04/07 03:10:25;;;;;;;7.63;1.60;;;1.80;96.30;;;;;;4996751;28;20034;-90
2021/04/07 03:12:51;;;;;;;10.75;1.60;;;1.80;96.00;;;;;;4996140;28;20437;-92
2021/04/07 03:15:17;;;;;;;3.03;1.10;;;1.90;95.70;;;;;;5013931;28;20400;-91
2021/04/07 03:17:43;;;;;;;5.07;1.10;;;2.00;95.70;;;;;;4997488;28;20050;-91
2021/04/07 03:20:09;;;;;;;3.60;0.93;;;2.10;95.50;;;;;;4998082;28;20505;-91
2021/04/07 03:22:35;;;;;;;5.68;1.40;;;2.10;95.40;;;;;;4999258;28;20037;-90
2021/04/07 03:25:03;;;;;;;4.35;1.52;;;2.10;95.50;;;;;;4997872;28;20041;-92
2021/04/07 03:27:29;;;;;;;6.82;1.40;;;2.10;95.60;;;;;;5000059;28;20041;-93
2021/04/07 03:29:58;;;;;;;4.78;1.38;;;2.10;95.60;;;;;;4996286;28;20038;-91
2021/04/07 03:32:24;;;;;;;6.28;1.35;;;2.20;95.60;;;;;;4996885;28;20038;-92
2021/04/07 03:34:50;;;;;;;6.00;1.83;;;2.20;95.80;;;;;;4995761;28;20410;-91
2021/04/07 03:37:16;;;;;;;7.88;1.40;;;2.20;95.80;;;;;;5013585;28;20042;-91
2021/04/07 03:39:42;;;;;;;4.57;1.20;;;2.20;95.90;;;;;;5013454;28;20041;-92
2021/04/07 03:42:08;;;;;;;8.98;1.80;;;2.30;95.90;;;;;;4994547;28;20653;-92
2021/04/07 03:44:34;;;;;;;5.15;1.30;;;2.30;95.80;;;;;;5011849;28;20113;-91
2021/04/07 03:47:00;;;;;;;6.30;1.30;;;2.30;95.90;;;;;;5012194;28;20121;-92
2021/04/07 03:49:25;;;;;;;7.50;1.25;;;2.30;96.10;;;;;;5012925;28;20033;-92
2021/04/07 03:51:51;;;;;;;9.05;2.00;;;2.20;96.10;;;;;;5012723;28;20026;-91
2021/04/07 03:54:18;;;;;;;9.68;1.50;;;2.20;96.30;;;;;;4996333;28;20072;-92
2021/04/07 03:56:44;;;;;;;6.47;1.73;;;2.20;96.30;;;;;;5013768;28;20091;-93
2021/04/07 03:59:09;;;;;;;5.00;1.45;;;2.20;96.50;;;;;;4995660;28;20712;-93
2021/04/07 04:01:36;;;;;;;10.68;1.33;;;2.20;96.60;;;;;;5013495;28;20042;-93
2021/04/07 04:04:01;;;;;;;9.65;1.60;;;2.20;96.60;;;;;;5012685;28;20054;-93
2021/04/07 04:06:27;;;;;;;8.23;1.50;;;2.20;96.70;;;;;;5013320;28;20061;-93
2021/04/07 04:08:53;;;;;;;5.35;2.00;;;2.20;96.70;;;;;;5012945;28;20046;-91
2021/04/07 04:11:19;;;;;;;5.30;1.48;;;2.20;96.80;;;;;;4996381;28;20038;-92
2021/04/07 04:13:44;;;;;;;6.25;1.35;;;2.30;96.90;;;;;;5013440;28;20757;-94
2021/04/07 04:16:10;;;;;;;6.97;1.48;;;2.30;97.00;;;;;;5012157;28;20065;-90
2021/04/07 04:18:36;;;;;;;9.10;1.67;;;2.30;97.00;;;;;;5013289;28;20064;-90
2021/04/07 04:21:02;;;;;;;8.20;2.33;;;2.30;97.10;;;;;;4994581;28;20038;-91
2021/04/07 04:23:28;;;;;;;8.68;2.33;;;2.30;97.00;;;;;;5013129;28;20117;-90
2021/04/07 04:25:54;;;;;;;9.48;1.60;;;2.40;96.90;;;;;;4994517;28;20434;-87
2021/04/07 04:28:20;;;;;;;8.52;1.58;;;2.40;96.90;;;;;;5012686;28;20030;-83
2021/04/07 04:30:46;;;;;;;9.48;1.60;;;2.50;96.80;;;;;;5013407;28;20049;-85
2021/04/07 04:33:11;;;;;;;8.05;1.73;;;2.40;96.80;;;;;;5012762;28;20073;-84
2021/04/07 04:35:37;;;;;;;15.05;2.78;;;2.40;97.00;;;;;;5012905;28;20034;-83
2021/04/07 04:38:03;;;;;;;10.85;2.60;;;2.50;97.10;;;;;;5012014;28;20041;-83
2021/04/07 04:40:29;;;;;;;11.32;2.60;;;2.50;97.10;;;;;;5012268;28;20087;-83
2021/04/07 04:42:55;;;;;;;14.57;4.70;;;2.50;97.20;;;;;;5011335;28;20409;-87
2021/04/07 04:45:20;;;;;;;14.23;4.45;;;2.50;97.20;;;;;;5010483;28;20049;-83
2021/04/07 04:47:48;;;;;;;14.88;3.95;;;2.50;97.20;;;;;;4994933;28;20025;-84
2021/04/07 04:50:16;;;;;;;11.52;2.30;;;2.50;97.20;;;;;;5011772;28;20049;-81
2021/04/07 04:52:42;;;;;;;10.95;2.47;;;2.60;97.40;;;;;;5001116;28;20401;-82
2021/04/07 04:55:09;;;;;;;13.60;4.45;;;2.70;97.40;;;;;;5011762;28;20080;-81
2021/04/07 04:57:36;;;;;;;10.20;1.90;;;2.60;97.30;;;;;;5011199;28;20030;-80
2021/04/07 05:00:06;;;;;;;12.82;2.15;;;2.70;97.40;;;;;;5010569;28;20041;-80
2021/04/07 05:02:33;;;;;;;10.10;2.55;;;2.70;97.30;;;;;;4994787;28;20081;-80
2021/04/07 05:04:59;;;;;;;17.15;2.55;;;2.70;97.20;;;;;;5011277;28;20082;-81
2021/04/07 05:07:28;;;;;;;17.15;2.30;;;2.70;97.20;;;;;;4994697;28;20042;-84
2021/04/07 05:09:54;;;;;;;22.30;2.85;;;2.70;97.20;;;;;;4978059;28;20402;-86
2021/04/07 05:12:25;;;;;;;14.07;2.60;;;2.70;97.30;;;;;;4994913;28;20042;-84
2021/04/07 05:14:51;;;;;;;10.25;2.35;;;2.80;97.30;;;;;;5012022;28;20092;-84
2021/04/07 05:17:18;;;;;;;13.95;2.88;;;2.80;97.30;;;;;;5011181;28;20470;-84
2021/04/07 05:19:44;;;;;;;15.90;2.53;;;2.70;97.20;;;;;;5010963;28;20478;-84
2021/04/07 05:22:10;;;;;;;13.40;2.65;;;2.80;97.30;;;;;;5011113;28;20041;-84
2021/04/07 05:24:36;;;;;;;19.40;3.00;;;2.90;97.30;;;;;;5012115;28;20390;-86
2021/04/07 05:27:02;;;;;;;13.45;2.80;;;2.90;97.20;;;;;;5011088;28;20038;-82
2021/04/07 05:29:35;;;;;;;19.45;3.33;;;2.90;97.20;;;;;;5011732;28;20037;-81
2021/04/07 05:32:08;;;;;;;14.75;3.50;;;2.90;97.20;;;;;;5010549;28;20042;-80
2021/04/07 05:34:34;;;;;;;14.85;3.30;;;2.90;97.10;;;;;;5011869;28;20049;-80
2021/04/07 05:37:00;;;;;;;7.88;1.92;;;3.00;97.20;;;;;;5010655;28;20070;-81
2021/04/07 05:39:26;;;;;;;12.57;2.60;;;3.20;97.20;;;;;;5011959;28;20073;-82
2021/04/07 05:41:52;;;;;;;16.63;3.03;;;3.30;96.80;;;;;;5011577;28;20093;-82
2021/04/07 05:44:18;;;;;;;15.32;3.08;;;3.30;96.90;;;;;;5010583;28;20045;-82
2021/04/07 05:46:43;;;;;;;13.50;2.90;;;3.30;96.80;;;;;;5011432;28;20069;-82
2021/04/07 05:49:09;;;;;;;14.40;2.90;;;3.40;96.90;;;;;;5010748;28;20045;-82
2021/04/07 05:51:35;;;;;;;14.50;2.75;;;3.40;96.80;;;;;;5011655;28;20038;-82
2021/04/07 05:54:01;;;;;;;15.60;3.88;;;3.50;96.80;;;;;;5010400;28;20120;-83
2021/04/07 05:56:27;;;;;;;14.63;3.10;;;3.50;96.80;;;;;;5011609;28;20052;-82
2021/04/07 05:58:53;;;;;;;16.67;3.50;;;3.50;96.80;;;;;;5011421;28;20502;-82
2021/04/07 06:01:18;;;;;;;18.10;3.67;;;3.50;96.70;;;;;;4992678;28;20050;-82
2021/04/07 06:03:45;;;;;;;22.25;3.28;;;3.50;96.70;;;;;;4993651;28;20054;-88
2021/04/07 06:06:11;;;;;;;18.77;3.40;;;3.50;96.70;;;;;;5012611;28;20044;-84
2021/04/07 06:08:36;;;;;;;15.25;3.20;;;3.50;96.80;;;;;;5014933;28;20390;-83
2021/04/07 06:11:03;;;;;;;19.50;3.17;;;3.60;96.70;;;;;;5014415;28;20068;-83
2021/04/07 06:13:29;;;;;;;10.48;2.53;;;3.70;96.60;;;;;;5014779;28;20126;-83
2021/04/07 06:15:54;;;;;;;11.73;2.60;;;3.70;96.80;;;;;;5014730;28;20041;-81
2021/04/07 06:18:20;;;;;;;16.25;2.47;;;3.80;96.30;;;;;;5013895;28;20029;-81
2021/04/07 06:20:48;;;;;;;13.45;2.20;;;3.90;95.90;;;;;;5014824;28;20042;-82
2021/04/07 06:23:15;;;;;;;9.27;2.60;;;4.00;95.30;;;;;;5013818;28;20056;-82
2021/04/07 06:25:43;;;;;;;10.15;2.13;;;4.10;94.60;;;;;;4997118;28;20041;-82
2021/04/07 06:28:10;;;;;;;11.05;2.13;;;4.30;93.70;;;;;;5013698;28;20044;-83
2021/04/07 06:30:46;;;;;;;10.40;1.45;;;4.50;92.70;;;;;;5013315;28;20124;-84
2021/04/07 06:33:20;;;;;;;9.55;2.05;;;4.50;92.70;;;;;;5013648;28;20088;-83
2021/04/07 06:35:51;;;;;;;5.35;1.38;;;4.60;92.00;;;;;;5013088;28;20042;-82
2021/04/07 06:38:18;;;;;;;6.53;1.63;;;4.70;92.20;;;;;;5013412;28;20030;-82
2021/04/07 06:40:45;;;;;;;7.18;1.70;;;4.80;91.70;;;;;;5014425;28;20038;-82
2021/04/07 06:43:13;;;;;;;8.02;1.90;;;5.00;90.80;;;;;;5013208;28;20049;-82
2021/04/07 06:45:39;;;;;;;9.20;2.13;;;5.20;90.90;;;;;;5014719;28;20046;-80
2021/04/07 06:48:07;;;;;;;9.85;1.70;;;5.30;90.50;;;;;;5013666;28;20069;-84
2021/04/07 06:50:33;;;;;;;9.63;2.17;;;5.50;90.30;;;;;;5013884;28;20033;-89
2021/04/07 06:53:01;;;;;;;13.15;2.03;;;5.60;89.60;;;;;;4995832;28;20034;-83
2021/04/07 06:55:28;;;;;;;12.50;2.35;;;5.70;88.50;;;;;;5013589;28;20058;-81
2021/04/07 06:57:54;;;;;;;10.05;2.00;;;5.80;88.80;;;;;;5013862;28;20038;-83
2021/04/07 07:00:21;;;;;;;8.38;1.92;;;5.90;89.10;;;;;;5013083;28;20495;-82
2021/04/07 07:02:47;;;;;;;13.13;2.40;;;5.90;89.60;;;;;;5013888;28;20123;-83
2021/04/07 07:05:17;;;;;;;5.40;0.93;;;5.90;90.20;;;;;;5012926;28;20054;-83
2021/04/07 07:07:43;;;;;;;3.95;1.15;;;5.80;89.80;;;;;;5013821;28;20108;-82
2021/04/07 07:10:09;;;;;;;7.13;1.10;;;5.70;90.40;;;;;;4995386;28;20491;-82
2021/04/07 07:12:35;;;;;;;8.55;1.67;;;5.50;91.20;;;;;;5013787;28;20034;-83
2021/04/07 07:15:02;;;;;;;10.07;1.85;;;5.50;91.40;;;;;;4996296;28;20052;-83
2021/04/07 07:17:34;;;;;;;9.05;1.75;;;5.60;91.30;;;;;;4994395;28;20033;-83
2021/04/07 07:20:01;;;;;;;5.07;1.25;;;5.60;91.40;;;;;;5013900;28;20038;-84
2021/04/07 07:22:29;;;;;;;3.15;1.35;;;5.60;91.70;;;;;;5012587;28;20780;-86
2021/04/07 07:25:00;;;;;;;3.20;0.82;;;5.40;92.40;;;;;;5012450;28;20042;-83
2021/04/07 07:27:41;;;;;;;2.30;0.77;;;5.20;93.20;;;;;;5012395;28;20030;-83
2021/04/07 07:30:10;;;;;;;3.17;0.90;;;5.10;92.60;;;;;;5012962;28;20482;-86
2021/04/07 07:32:40;;;;;;;5.07;1.20;;;4.80;93.40;;;;;;5013459;28;20493;-83
2021/04/07 07:35:16;;;;;;;2.53;0.73;;;4.70;93.90;;;;;;5012956;28;20073;-85
2021/04/07 07:37:44;;;;;;;7.43;1.52;;;4.60;94.20;;;;;;5013389;28;20375;-86
2021/04/07 07:40:21;;;;;;;6.80;1.83;;;4.60;94.00;;;;;;5012478;28;20038;-88
2021/04/07 07:42:48;;;;;;;7.60;1.60;;;4.50;94.20;;;;;;5013235;28;20470;-82
2021/04/07 07:45:23;;;;;;;5.43;2.03;;;4.60;94.80;;;;;;4994729;28;20050;-85
2021/04/07 07:48:18;;;;;;;9.27;1.58;;;4.80;94.80;;;;;;5012958;28;20034;-84
2021/04/07 07:50:46;;;;;;;7.85;2.10;;;4.90;94.60;;;;;;5011937;28;20469;-82
2021/04/07 07:53:13;;;;;;;9.73;1.85;;;5.10;93.90;;;;;;5011992;28;20069;-82
2021/04/07 07:55:40;;;;;;;9.30;1.83;;;5.30;93.80;;;;;;4995515;28;20038;-84
2021/04/07 07:58:06;;;;;;;2.80;1.25;;;5.40;93.80;;;;;;5012679;28;20066;-87
2021/04/07 08:00:32;;;;;;;7.90;1.48;;;5.60;93.40;;;;;;5010880;28;20079;-85
2021/04/07 08:03:13;;;;;;;9.75;2.03;;;5.70;93.60;;;;;;5012895;28;20037;-90
2021/04/07 08:05:40;;;;;;;13.43;2.33;;;5.70;94.10;;;;;;4973569;28;20050;-84
2021/04/07 08:08:07;;;;;;;10.63;2.22;;;5.80;93.40;;;;;;4973581;28;20038;-86
2021/04/07 08:10:36;;;;;;;12.57;2.55;;;5.80;93.20;;;;;;4972294;28;20570;-88
2021/04/07 08:13:04;;;;;;;12.05;2.00;;;5.80;93.10;;;;;;4973640;28;20046;-83
2021/04/07 08:15:31;;;;;;;10.30;1.95;;;5.90;92.80;;;;;;4955534;28;20182;-84
2021/04/07 08:17:57;;;;;;;15.48;3.03;;;6.00;92.70;;;;;;4956076;28;20034;-85
2021/04/07 08:20:25;;;;;;;7.82;2.35;;;;;;;;;;4955213;28;20039;-83
2021/04/07 08:22:55;;;;;;;11.73;3.13;;;6.50;91.20;;;;;;4973524;28;20121;-85
2021/04/07 08:25:23;;;;;;;14.30;2.92;;;6.60;89.70;;;;;;4972537;28;20122;-86
2021/04/07 08:27:53;;;;;;;10.73;2.30;;;6.60;91.00;;;;;;4973149;28;20487;-84
2021/04/07 08:30:21;;;;;;;10.55;3.17;;;6.70;90.40;;;;;;4972550;28;20043;-87
2021/04/07 08:32:49;;;;;;;7.20;2.42;;;6.90;87.50;;;;;;4972024;28;20035;-83
2021/04/07 08:35:17;;;;;;;10.13;2.70;;;6.90;89.70;;;;;;4972940;28;20069;-84
2021/04/07 08:37:43;;;;;;;12.70;3.40;;;6.50;90.80;;;;;;4972032;28;20121;-83
2021/04/07 08:40:14;;;;;;;14.80;3.22;;;6.20;91.30;;;;;;4955740;28;20511;-87
2021/04/07 08:42:41;;;;;;;9.32;2.85;;;6.00;91.70;;;;;;4973179;28;20031;-82
2021/04/07 08:45:10;;;;;;;14.43;2.97;;;6.00;92.20;;;;;;4973199;28;20035;-85
2021/04/07 08:47:48;;;;;;;14.98;2.67;;;6.20;92.30;;;;;;4955403;28;20478;-85
2021/04/07 08:50:15;;;;;;;18.08;2.67;;;6.40;90.70;;;;;;4946343;29;20046;-85
2021/04/07 08:52:49;;;;;;;7.80;2.00;;;6.50;91.00;;;;;;4970131;28;20063;-87
2021/04/07 08:55:27;;;;;;;11.27;2.05;;;6.80;87.00;;;;;;4972149;28;20114;-85
2021/04/07 08:58:04;;;;;;;6.03;2.15;;;6.90;85.30;;;;;;4972287;28;20039;-84
2021/04/07 09:00:33;;;;;;;7.90;2.92;;;7.00;84.20;;;;;;4971715;28;20411;-85
2021/04/07 09:03:14;;;;;;;9.07;2.92;;;6.90;84.30;;;;;;4952198;29;20043;-85
2021/04/07 09:05:45;;;;;;;13.93;2.25;;;6.90;84.00;;;;;;4966766;28;20049;-84
2021/04/07 09:08:19;;;;;;;13.20;2.00;;;6.80;85.40;;;;;;4971925;28;20391;-85
2021/04/07 09:10:53;;;;;;;10.95;2.13;;;7.00;81.40;;;;;;4971801;28;20042;-85
2021/04/07 09:13:22;;;;;;;9.07;2.38;;;7.00;82.20;;;;;;4971306;28;20038;-85
2021/04/07 09:16:03;;;;;;;15.77;3.08;;;7.00;81.60;;;;;;4972226;28;20050;-84
2021/04/07 09:18:44;;;;;;;11.57;2.42;;;7.20;83.40;;;;;;4971121;28;20489;-84
2021/04/07 09:21:16;;;;;;;7.05;2.03;;;7.40;81.50;;;;;;4971930;28;20050;-84
2021/04/07 09:23:49;;;;;;;7.90;2.50;;;7.50;80.90;;;;;;4971776;28;20039;-85
2021/04/07 09:26:17;;;;;;;8.98;2.47;;;7.50;77.80;;;;;;4971604;28;20043;-86
2021/04/07 09:28:45;;;;;;;11.38;2.25;;;7.40;77.00;;;;;;4971714;28;20043;-84
2021/04/07 09:31:13;;;;;;;6.05;1.88;;;7.30;77.00;;;;;;4972620;28;20038;-84
2021/04/07 09:33:51;;;;;;;7.68;1.75;;;7.30;74.60;;;;;;4960788;28;20038;-85
2021/04/07 09:36:30;;;;;;;8.93;1.75;;;7.20;75.30;;;;;;4970956;28;20581;-86
2021/04/07 09:38:57;;;;;;;7.15;1.83;;;7.30;73.00;;;;;;4948163;29;20365;-86
2021/04/07 09:41:29;;;;;;;10.25;2.42;;;7.30;74.80;;;;;;4964381;28;20042;-85
2021/04/07 09:43:59;;;;;;;6.57;2.17;;;7.50;76.40;;;;;;4958098;28;20403;-84
2021/04/07 09:46:26;;;;;;;6.68;1.42;;;7.70;72.30;;;;;;4974834;28;20050;-85
2021/04/07 09:48:53;;;;;;;9.80;2.42;;;7.70;72.20;;;;;;4976286;28;20034;-85
2021/04/07 09:51:27;;;;;;;8.60;2.00;;;7.80;75.10;;;;;;4975205;28;20042;-86
2021/04/07 09:54:05;;;;;;;6.43;2.40;;;8.00;74.70;;;;;;4975191;28;20049;-86
2021/04/07 09:56:31;;;;;;;13.38;2.40;;;7.90;74.70;;;;;;4975135;28;20042;-85
2021/04/07 09:58:58;;;;;;;8.70;2.88;;;7.80;75.40;;;;;;4976380;28;20109;-85
2021/04/07 10:01:25;;;;;;;12.65;2.53;;;7.70;76.50;;;;;;4974543;28;20046;-85
2021/04/07 10:03:53;;;;;;;19.10;3.22;;;7.70;76.50;;;;;;4980441;28;20057;-85
2021/04/07 10:06:22;;;;;;;6.43;1.88;;;7.60;78.90;;;;;;4991710;28;20088;-85
2021/04/07 10:09:06;;;;;;;4.35;1.88;;;7.60;77.90;;;;;;4996642;28;20030;-84
2021/04/07 10:11:42;;;;;;;7.07;1.92;;;7.40;75.60;;;;;;5012936;28;20049;-83
2021/04/07 10:14:10;;;;;;;8.23;1.60;;;6.90;76.50;;;;;;5014171;28;20117;-83
2021/04/07 10:16:37;;;;;;;6.32;2.17;;;6.70;77.40;;;;;;5012887;28;20088;-84
2021/04/07 10:19:08;;;;;;;6.60;1.83;;;6.70;76.80;;;;;;5014295;28;20095;-84
2021/04/07 10:21:35;;;;;;;9.05;1.90;;;6.70;78.20;;;;;;5013046;28;20038;-84
2021/04/07 10:24:03;;;;;;;6.10;1.98;;;6.80;78.80;;;;;;5013690;28;20062;-83
2021/04/07 10:26:29;;;;;;;8.68;2.05;;;7.00;75.00;;;;;;5009336;28;20037;-83
2021/04/07 10:28:59;;;;;;;7.22;2.15;;;7.00;76.50;;;;;;5011742;28;20042;-83
2021/04/07 10:31:26;;;;;;;8.43;1.67;;;7.00;75.50;;;;;;4992242;28;20038;-84
2021/04/07 10:34:03;;;;;;;7.05;1.80;;;6.90;76.00;;;;;;5013304;28;20042;-84
2021/04/07 10:36:30;;;;;;;10.93;2.30;;;6.80;77.30;;;;;;5011653;28;20105;-84
2021/04/07 10:38:58;;;;;;;7.78;1.92;;;6.50;80.30;;;;;;4995491;28;20030;-84
2021/04/07 10:41:26;;;;;;;8.15;1.52;;;6.30;80.90;;;;;;5012560;28;20038;-85
2021/04/07 10:43:52;;;;;;;7.55;1.40;;;6.40;82.50;;;;;;4994849;28;20045;-84
2021/04/07 10:46:29;;;;;;;6.22;1.92;;;6.70;78.40;;;;;;5013607;28;20057;-84
2021/04/07 10:48:57;;;;;;;6.50;1.23;;;7.00;74.50;;;;;;4996184;28;20113;-85
2021/04/07 10:51:23;;;;;;;9.02;2.17;;;7.10;74.50;;;;;;4977516;28;20490;-86
2021/04/07 10:53:55;;;;;;;5.35;2.08;;;7.10;72.80;;;;;;5010467;28;20070;-84
2021/04/07 10:56:22;;;;;;;10.52;1.67;;;6.90;77.50;;;;;;5011494;28;20438;-86
2021/04/07 10:58:52;;;;;;;7.72;1.70;;;6.30;80.60;;;;;;4995451;28;20061;-84
2021/04/07 11:01:32;;;;;;;10.35;1.80;;;5.90;81.60;;;;;;5013988;28;20138;-84
2021/04/07 11:04:15;;;;;;;6.70;2.08;;;5.60;85.10;;;;;;4979423;28;20058;-84
2021/04/07 11:06:42;;;;;;;6.32;1.48;;;5.70;84.70;;;;;;5011716;28;20080;-84
2021/04/07 11:09:15;;;;;;;3.70;1.30;;;5.60;86.20;;;;;;4996548;28;20070;-80
2021/04/07 11:11:42;;;;;;;7.88;1.98;;;5.90;86.70;;;;;;5012335;28;20034;-83
2021/04/07 11:14:09;;;;;;;5.82;2.22;;;6.10;84.20;;;;;;4995669;28;20057;-83
2021/04/07 11:16:35;;;;;;;5.30;1.60;;;6.30;82.90;;;;;;5012729;28;20034;-84
2021/04/07 11:19:12;;;;;;;11.68;2.05;;;6.50;82.40;;;;;;5013591;28;20565;-83
2021/04/07 11:21:38;;;;;;;12.00;2.40;;;6.40;82.20;;;;;;4995124;28;20452;-83
2021/04/07 11:24:04;;;;;;;10.00;2.25;;;6.40;84.00;;;;;;5013349;28;20041;-83
2021/04/07 11:26:30;;;;;;;8.25;1.85;;;6.50;85.00;;;;;;5012488;28;20042;-83
2021/04/07 11:28:56;;;;;;;11.40;2.80;;;6.60;82.10;;;;;;5013354;28;20037;-82
2021/04/07 11:31:24;;;;;;;9.00;1.80;;;6.70;82.00;;;;;;5012711;28;20037;-83
2021/04/07 11:33:54;;;;;;;8.90;1.73;;;6.90;79.50;;;;;;5013146;28;20092;-83
2021/04/07 11:36:45;;;;;;;8.40;2.30;;;6.90;75.90;;;;;;5013165;28;20521;-83
2021/04/07 11:39:16;;;;;;;9.88;2.08;;;7.00;73.40;;;;;;4995728;28;20471;-83
2021/04/07 11:42:26;;;;;;;8.68;1.98;;;7.00;74.30;;;;;;4994603;28;20376;-83
2021/04/07 11:44:32;;;;;;;8.63;1.48;;;7.10;71.00;;;;;;5005956;28;20125;-83
2021/04/07 11:47:02;;;;;;;6.80;1.58;;;7.20;72.40;;;;;;5009882;28;20076;-85
2021/04/07 11:49:29;;;;;;;6.45;1.55;;;7.30;73.00;;;;;;5011621;28;20034;-85
2021/04/07 11:51:55;;;;;;;7.05;2.10;;;7.30;70.70;;;;;;5011782;28;20038;-84
2021/04/07 11:54:21;;;;;;;8.43;1.98;;;7.20;68.60;;;;;;4997667;28;20388;-84
2021/04/07 11:56:48;;;;;;;7.20;2.25;;;7.10;70.40;;;;;;4987037;28;20076;-84
2021/04/07 11:59:24;;;;;;;7.28;2.25;;;7.00;72.10;;;;;;5012461;28;20095;-85
2021/04/07 12:01:54;;;;;;;9.77;1.90;;;7.00;70.00;;;;;;5012185;28;20044;-83
2021/04/07 12:04:23;;;;;;;7.95;2.08;;;6.70;74.50;;;;;;4992088;28;20051;-84
2021/04/07 12:06:49;;;;;;;8.68;2.67;;;6.20;82.60;;;;;;5009672;28;20046;-83
2021/04/07 12:09:15;;;;;;;5.57;1.33;;;5.10;86.90;;;;;;5012571;28;20486;-82
2021/04/07 12:11:41;;;;;;;5.88;1.55;;;4.30;90.50;;;;;;5011751;28;20049;-82
2021/04/07 12:14:09;;;;;;;8.27;1.45;;;4.00;91.50;;;;;;5012474;28;20382;-81
2021/04/07 12:16:39;;;;;;;11.63;2.00;;;4.00;92.40;;;;;;5011831;28;20045;-84
2021/04/07 12:19:06;;;;;;;10.60;2.10;;;4.10;93.30;;;;;;5012602;28;20045;-84
2021/04/07 12:21:32;;;;;;;9.32;1.92;;;4.40;93.60;;;;;;5012066;28;20046;-86
2021/04/07 12:23:58;;;;;;;5.03;1.63;;;4.70;93.70;;;;;;5013211;28;20061;-84
2021/04/07 12:26:24;;;;;;;5.47;1.73;;;5.20;92.50;;;;;;4994956;28;20049;-85
2021/04/07 12:28:50;;;;;;;4.00;1.23;;;5.50;91.00;;;;;;5011715;28;20034;-84
2021/04/07 12:31:20;;;;;;;2.88;1.20;;;5.60;90.20;;;;;;5012586;28;20088;-84
2021/04/07 12:33:55;;;;;;;4.47;1.60;;;5.80;88.90;;;;;;5011509;28;20516;-84
2021/04/07 12:36:26;;;;;;;2.17;1.10;;;5.60;87.10;;;;;;5012417;28;20049;-83
2021/04/07 12:38:53;;;;;;;3.15;1.08;;;5.60;89.30;;;;;;4994221;28;20038;-84
2021/04/07 12:41:24;;;;;;;2.90;0.90;;;5.60;87.30;;;;;;5012426;28;20065;-85
2021/04/07 12:43:50;;;;;;;4.18;1.02;;;5.70;83.30;;;;;;5011626;28;20137;-83
2021/04/07 12:46:16;;;;;;;7.28;1.35;;;5.70;85.60;;;;;;5012280;28;20121;-84
2021/04/07 12:48:48;;;;;;;2.63;1.05;;;5.90;88.40;;;;;;5011575;28;20045;-84
2021/04/07 12:51:21;;;;;;;6.85;1.60;;;6.20;83.90;;;;;;5012318;28;20034;-84
2021/04/07 12:53:48;;;;;;;6.10;1.33;;;6.10;86.40;;;;;;4994222;28;20120;-85
2021/04/07 12:56:17;;;;;;;4.35;1.20;;;6.20;84.50;;;;;;5011949;28;20060;-84
2021/04/07 12:58:45;;;;;;;7.25;1.73;;;6.30;81.90;;;;;;4993542;28;20041;-85